Paxton, Texas
Current Conditions -  °F | °C
As of 8:56 AM on Monday 22 Dec 2014 (Local Time) from KSHV Reporting Station
Haze Haze  
Wind Chill: 53°   Ceiling: 400
Heat Index: 53°   Visibility: 5mi
Dew Point: 51°   Wind: 10mph
Humidity: 93%   Direction: 160°SSE
Pressure: 29.72"   Gusts: NA
Location:  31.9194°N, 94.0667°W
Report Text: KSHV 221456Z 16009KT 5SM BR OVC004 12/11 A2972 RMK AO2 SLP062 T01170106 58006
Loading
Personal Weather Stations






























Interactive Weather Map New forecast layout! Learn more

10-Day Weather Forecast

Advertisements
Track Severe Weather on mobile